createdAt,value
2022-08-28T00:01:40.744Z,55.61
2022-08-28T00:05:12.767Z,55.74
2022-08-28T00:08:39.483Z,55.94
2022-08-28T00:12:18.263Z,55.98
2022-08-28T00:16:01.370Z,56.13
2022-08-28T00:19:30.229Z,56.25
2022-08-28T00:22:58.265Z,56.38
2022-08-28T00:26:39.235Z,56.55
2022-08-28T00:30:08.125Z,56.55
2022-08-28T00:33:39.297Z,56.78
2022-08-28T00:37:07.150Z,56.92
2022-08-28T00:40:37.145Z,57.03
2022-08-28T00:44:18.895Z,57.20
2022-08-28T00:47:46.399Z,57.33
2022-08-28T00:51:31.616Z,57.47
2022-08-28T00:55:02.164Z,57.46
2022-08-28T00:58:29.160Z,57.52
2022-08-28T01:01:58.187Z,57.59
2022-08-28T01:05:26.245Z,57.65
2022-08-28T01:08:54.790Z,57.69
2022-08-28T01:12:34.969Z,57.78
2022-08-28T01:16:20.189Z,58.05
2022-08-28T01:19:56.665Z,58.09
2022-08-28T01:23:33.858Z,58.33
2022-08-28T01:27:01.304Z,58.39
2022-08-28T01:30:32.161Z,58.57
2022-08-28T01:34:01.268Z,58.56
2022-08-28T01:37:28.431Z,58.58
2022-08-28T01:40:58.130Z,58.58
2022-08-28T01:44:27.349Z,58.68
2022-08-28T01:47:56.743Z,58.83
2022-08-28T01:51:24.810Z,58.87
2022-08-28T01:54:52.183Z,58.99
2022-08-28T01:58:24.729Z,58.98
2022-08-28T02:01:55.634Z,59.16
2022-08-28T02:05:23.383Z,59.05
2022-08-28T02:08:55.829Z,59.09
2022-08-28T02:12:22.572Z,59.31
2022-08-28T02:15:51.096Z,59.43
2022-08-28T02:19:17.961Z,59.60
2022-08-28T02:22:45.675Z,59.75
2022-08-28T02:26:14.058Z,59.77
2022-08-28T02:29:41.266Z,59.73
2022-08-28T02:33:11.139Z,59.80
2022-08-28T02:36:41.270Z,59.88
2022-08-28T02:40:11.067Z,59.96
2022-08-28T02:43:38.862Z,59.99
2022-08-28T02:47:06.420Z,60.10
2022-08-28T02:50:34.563Z,60.09
2022-08-28T02:54:02.652Z,60.11
2022-08-28T02:57:31.340Z,60.20
2022-08-28T03:00:59.193Z,60.29
2022-08-28T03:04:26.600Z,60.50
2022-08-28T03:07:54.800Z,60.52
2022-08-28T03:11:21.960Z,60.62
2022-08-28T03:14:49.008Z,60.75
2022-08-28T03:18:18.274Z,60.84
2022-08-28T03:21:46.028Z,60.92
2022-08-28T03:25:16.953Z,60.93
2022-08-28T03:28:51.729Z,60.94
2022-08-28T03:32:18.680Z,61.03
2022-08-28T03:35:46.144Z,61.14
2022-08-28T03:39:14.047Z,61.26
2022-08-28T03:42:41.308Z,61.36
2022-08-28T03:46:10.070Z,61.38
2022-08-28T03:49:41.068Z,61.42
2022-08-28T03:53:08.631Z,61.43
2022-08-28T03:56:35.694Z,61.56
2022-08-28T04:00:04.144Z,61.69
2022-08-28T04:03:41.489Z,61.82
2022-08-28T04:07:10.879Z,61.85
2022-08-28T04:10:38.040Z,61.85
2022-08-28T04:14:05.096Z,62.06
2022-08-28T04:17:34.485Z,62.05
2022-08-28T04:21:08.114Z,62.09
2022-08-28T04:24:35.032Z,62.17
2022-08-28T04:28:02.967Z,62.23
2022-08-28T04:31:31.923Z,62.22
2022-08-28T04:35:00.126Z,62.11
2022-08-28T04:38:26.944Z,62.15
2022-08-28T04:41:55.979Z,62.27
2022-08-28T04:45:23.612Z,62.23
2022-08-28T04:48:50.363Z,62.34
2022-08-28T04:52:17.519Z,62.44
2022-08-28T04:55:54.184Z,62.47
2022-08-28T04:59:22.882Z,62.49
2022-08-28T05:02:50.094Z,62.67
2022-08-28T05:06:18.537Z,62.67
2022-08-28T05:09:46.271Z,62.76
2022-08-28T05:13:16.744Z,62.75
2022-08-28T05:16:48.508Z,62.80
2022-08-28T05:20:19.356Z,62.78
2022-08-28T05:23:46.618Z,62.80
2022-08-28T05:27:14.116Z,62.80
2022-08-28T05:30:42.462Z,62.71
2022-08-28T05:34:10.700Z,62.73
2022-08-28T05:37:37.950Z,62.87
2022-08-28T05:41:05.347Z,62.80
2022-08-28T05:44:32.969Z,62.61
2022-08-28T05:48:00.073Z,62.55
2022-08-28T05:51:28.259Z,62.56
2022-08-28T05:54:55.105Z,62.42
2022-08-28T05:58:32.198Z,62.49
2022-08-28T06:02:04.490Z,62.46
2022-08-28T06:05:31.451Z,62.50
2022-08-28T06:09:01.714Z,62.59
2022-08-28T06:12:29.265Z,62.59
2022-08-28T06:15:58.182Z,62.55
2022-08-28T06:19:26.779Z,62.55
2022-08-28T06:22:54.585Z,62.71
2022-08-28T06:26:22.559Z,62.59
2022-08-28T06:29:50.150Z,62.55
2022-08-28T06:33:21.871Z,62.42
2022-08-28T06:36:53.632Z,62.40
2022-08-28T06:40:21.246Z,62.36
2022-08-28T06:43:48.693Z,62.37
2022-08-28T06:47:22.180Z,62.21
2022-08-28T06:50:52.520Z,62.23
2022-08-28T06:54:23.346Z,62.24
2022-08-28T06:57:50.540Z,62.16
2022-08-28T07:01:23.055Z,62.10
2022-08-28T07:04:51.917Z,62.10
2022-08-28T07:08:20.812Z,61.97
2022-08-28T07:11:49.605Z,62.01
2022-08-28T07:15:17.498Z,61.96
2022-08-28T07:18:45.331Z,61.91
2022-08-28T07:22:14.731Z,61.70
2022-08-28T07:25:43.865Z,61.59
2022-08-28T07:29:11.722Z,61.45
2022-08-28T07:32:38.827Z,61.32
2022-08-28T07:36:07.457Z,61.03
2022-08-28T07:39:40.240Z,60.71
2022-08-28T07:43:27.578Z,60.52
2022-08-28T07:46:58.615Z,60.32
2022-08-28T07:50:25.814Z,60.15
2022-08-28T07:53:53.649Z,59.89
2022-08-28T07:57:21.506Z,59.78
2022-08-28T08:00:51.037Z,59.52
2022-08-28T08:04:20.222Z,59.31
2022-08-28T08:07:47.597Z,59.08
2022-08-28T08:11:18.091Z,58.82
2022-08-28T08:14:45.949Z,58.43
2022-08-28T08:18:14.157Z,58.24
2022-08-28T08:21:41.637Z,58.00
2022-08-28T08:25:11.127Z,57.87
2022-08-28T08:28:39.135Z,57.63
2022-08-28T08:32:11.728Z,57.40
2022-08-28T08:35:40.120Z,57.23
2022-08-28T08:39:09.759Z,57.02
2022-08-28T08:42:40.872Z,56.93
2022-08-28T08:46:08.858Z,56.80
2022-08-28T08:49:39.486Z,56.57
2022-08-28T08:53:28.477Z,56.29
2022-08-28T08:56:58.392Z,55.89
2022-08-28T09:00:27.185Z,55.66
2022-08-28T09:04:02.458Z,55.56
2022-08-28T09:07:39.273Z,55.29
2022-08-28T09:11:34.692Z,55.15
2022-08-28T09:15:05.677Z,54.92
2022-08-28T09:18:38.449Z,54.48
2022-08-28T09:22:06.154Z,54.21
2022-08-28T09:25:59.725Z,53.96
2022-08-28T09:29:35.041Z,53.66
2022-08-28T09:33:04.539Z,53.35
2022-08-28T09:36:36.744Z,52.88
2022-08-28T09:40:26.771Z,52.90
2022-08-28T09:43:56.973Z,52.38
2022-08-28T09:47:57.839Z,51.86
2022-08-28T09:51:35.219Z,51.92
2022-08-28T09:55:02.778Z,51.65
2022-08-28T09:58:35.569Z,51.30
2022-08-28T10:02:24.840Z,50.52
2022-08-28T10:06:04.755Z,50.21
2022-08-28T10:09:46.822Z,50.02
2022-08-28T10:13:22.048Z,49.61
2022-08-28T10:17:01.295Z,49.10
2022-08-28T10:20:55.179Z,48.86
2022-08-28T10:24:44.946Z,48.31
2022-08-28T10:28:39.641Z,48.12
2022-08-28T10:32:19.026Z,47.83
2022-08-28T10:35:54.983Z,47.87
2022-08-28T10:39:37.737Z,47.62
2022-08-28T10:43:12.329Z,47.26
2022-08-28T10:46:50.664Z,46.85
2022-08-28T10:50:28.294Z,46.55
2022-08-28T10:54:01.100Z,46.47
2022-08-28T10:57:39.782Z,46.32
2022-08-28T11:01:25.603Z,46.16
2022-08-28T11:04:58.685Z,45.84
2022-08-28T11:08:39.667Z,45.46
2022-08-28T11:12:30.567Z,45.51
2022-08-28T11:15:58.497Z,44.89
2022-08-28T11:20:02.639Z,44.53
2022-08-28T11:23:46.500Z,44.55
2022-08-28T11:27:34.939Z,44.41
2022-08-28T11:31:35.399Z,44.39
2022-08-28T11:35:08.022Z,44.11
2022-08-28T11:39:04.203Z,44.13
2022-08-28T11:42:40.741Z,44.71
2022-08-28T11:46:25.571Z,45.18
2022-08-28T11:49:53.470Z,45.41
2022-08-28T11:53:41.019Z,45.43
2022-08-28T11:57:16.661Z,45.21
2022-08-28T12:00:58.110Z,45.02
2022-08-28T12:04:25.966Z,45.21
2022-08-28T12:07:54.681Z,45.19
2022-08-28T12:11:59.022Z,45.24
2022-08-28T12:15:46.103Z,45.27
2022-08-28T12:19:30.222Z,45.52
2022-08-28T12:23:03.243Z,45.65
2022-08-28T12:26:36.217Z,45.69
2022-08-28T12:30:05.364Z,45.61
2022-08-28T12:33:46.917Z,45.77
2022-08-28T12:37:39.643Z,45.90
2022-08-28T12:41:25.034Z,45.74
2022-08-28T12:44:52.459Z,45.75
2022-08-28T12:48:23.608Z,46.09
2022-08-28T12:51:51.138Z,45.94
2022-08-28T12:55:24.181Z,45.95
2022-08-28T12:58:54.253Z,46.01
2022-08-28T13:02:28.365Z,45.94
2022-08-28T13:06:03.753Z,45.86
2022-08-28T13:09:31.357Z,46.17
2022-08-28T13:13:05.571Z,46.00
2022-08-28T13:16:42.183Z,46.29
2022-08-28T13:20:24.840Z,46.39
2022-08-28T13:23:54.167Z,46.54
2022-08-28T13:27:26.000Z,46.65
2022-08-28T13:31:03.994Z,46.94
2022-08-28T13:34:33.163Z,47.11
2022-08-28T13:38:03.672Z,46.99
2022-08-28T13:41:31.175Z,47.22
2022-08-28T13:44:58.834Z,47.19
2022-08-28T13:48:28.685Z,47.30
2022-08-28T13:51:59.669Z,47.26
2022-08-28T13:55:28.262Z,47.44
2022-08-28T13:58:57.691Z,47.51
2022-08-28T14:02:42.868Z,47.66
2022-08-28T14:06:14.627Z,47.69
2022-08-28T14:09:42.578Z,47.87
2022-08-28T14:13:15.057Z,47.86
2022-08-28T14:16:45.222Z,47.87
2022-08-28T14:20:16.112Z,47.94
2022-08-28T14:23:45.340Z,48.02
2022-08-28T14:27:12.980Z,48.24
2022-08-28T14:30:50.303Z,48.27
2022-08-28T14:34:25.705Z,48.44
2022-08-28T14:37:58.188Z,48.53
2022-08-28T14:41:27.861Z,48.67
2022-08-28T14:44:55.811Z,48.98
2022-08-28T14:48:35.078Z,48.92
2022-08-28T14:52:14.509Z,49.03
2022-08-28T14:55:51.917Z,49.22
2022-08-28T14:59:54.655Z,49.20
2022-08-28T15:03:26.086Z,48.99
2022-08-28T15:07:07.395Z,48.94
2022-08-28T15:10:42.772Z,48.82
2022-08-28T15:14:16.559Z,48.25
2022-08-28T15:17:47.207Z,47.92
2022-08-28T15:21:21.100Z,47.98
2022-08-28T15:24:51.101Z,47.95
2022-08-28T15:28:24.703Z,47.79
2022-08-28T15:31:55.245Z,47.54
2022-08-28T15:35:58.652Z,47.46
2022-08-28T15:39:46.238Z,47.07
2022-08-28T15:43:21.269Z,47.06
2022-08-28T15:47:07.212Z,47.03
2022-08-28T15:50:38.491Z,46.62
2022-08-28T15:54:16.647Z,46.38
2022-08-28T15:57:45.679Z,46.09
2022-08-28T16:01:14.818Z,46.08
2022-08-28T16:04:42.243Z,46.09
2022-08-28T16:08:11.780Z,45.94
2022-08-28T16:11:39.055Z,45.77
2022-08-28T16:15:19.307Z,45.62
2022-08-28T16:19:03.784Z,45.46
2022-08-28T16:22:30.833Z,45.50
2022-08-28T16:26:16.298Z,45.45
2022-08-28T16:29:57.572Z,45.53
2022-08-28T16:33:26.279Z,45.72
2022-08-28T16:36:53.834Z,45.65
2022-08-28T16:40:21.985Z,45.65
2022-08-28T16:43:50.606Z,45.79
2022-08-28T16:47:21.784Z,45.90
2022-08-28T16:50:51.946Z,45.96
2022-08-28T16:54:23.991Z,46.18
2022-08-28T16:57:55.935Z,46.33
2022-08-28T17:01:26.765Z,46.49
2022-08-28T17:05:00.806Z,46.70
2022-08-28T17:08:37.024Z,46.94
2022-08-28T17:12:14.272Z,47.14
2022-08-28T17:15:41.835Z,47.33
2022-08-28T17:19:17.622Z,47.60
2022-08-28T17:22:47.088Z,47.80
2022-08-28T17:26:21.402Z,47.99
2022-08-28T17:29:53.548Z,48.23
2022-08-28T17:33:25.341Z,48.38
2022-08-28T17:36:53.852Z,48.62
2022-08-28T17:40:22.252Z,48.90
2022-08-28T17:43:55.122Z,48.88
2022-08-28T17:47:27.569Z,48.64
2022-08-28T17:51:19.797Z,48.67
2022-08-28T17:55:01.041Z,48.92
2022-08-28T17:58:33.463Z,49.45
2022-08-28T18:02:04.989Z,49.92
2022-08-28T18:05:33.509Z,50.45
2022-08-28T18:09:04.049Z,51.01
2022-08-28T18:12:31.863Z,51.40
2022-08-28T18:15:59.545Z,51.69
2022-08-28T18:19:29.957Z,52.02
2022-08-28T18:22:57.880Z,52.22
2022-08-28T18:26:29.315Z,52.71
2022-08-28T18:30:02.966Z,52.96
2022-08-28T18:33:33.979Z,53.48
2022-08-28T18:37:03.425Z,53.73
2022-08-28T18:40:32.318Z,53.95
2022-08-28T18:44:04.776Z,54.37
2022-08-28T18:47:34.398Z,54.85
2022-08-28T18:51:04.536Z,55.23
2022-08-28T18:54:33.168Z,55.70
2022-08-28T18:58:02.765Z,55.94
2022-08-28T19:01:35.066Z,56.30
2022-08-28T19:05:03.694Z,56.55
2022-08-28T19:08:38.192Z,56.87
2022-08-28T19:12:08.418Z,57.20
2022-08-28T19:15:38.648Z,57.51
2022-08-28T19:19:09.007Z,57.80
2022-08-28T19:22:39.225Z,58.14
2022-08-28T19:26:07.925Z,58.43
2022-08-28T19:29:39.499Z,58.83
2022-08-28T19:33:12.905Z,59.10
2022-08-28T19:36:45.592Z,59.45
2022-08-28T19:40:16.269Z,59.62
2022-08-28T19:43:44.848Z,59.76
2022-08-28T19:47:16.323Z,59.95
2022-08-28T19:50:44.629Z,60.10
2022-08-28T19:54:14.785Z,60.23
2022-08-28T19:57:45.455Z,60.52
2022-08-28T20:01:15.567Z,60.73
2022-08-28T20:04:43.431Z,60.82
2022-08-28T20:08:14.310Z,61.08
2022-08-28T20:11:49.501Z,61.20
2022-08-28T20:15:19.844Z,61.34
2022-08-28T20:18:53.798Z,61.48
2022-08-28T20:22:22.753Z,61.55
2022-08-28T20:26:17.734Z,61.62
2022-08-28T20:29:57.424Z,61.76
2022-08-28T20:33:26.109Z,62.05
2022-08-28T20:36:56.192Z,62.18
2022-08-28T20:40:36.477Z,62.33
2022-08-28T20:44:07.519Z,62.50
2022-08-28T20:47:38.780Z,62.73
2022-08-28T20:51:09.348Z,62.96
2022-08-28T20:54:39.096Z,63.13
2022-08-28T20:58:15.797Z,63.22
2022-08-28T21:01:45.606Z,63.42
2022-08-28T21:05:13.740Z,63.54
2022-08-28T21:08:45.435Z,63.70
2022-08-28T21:12:14.746Z,63.83
2022-08-28T21:15:42.934Z,63.89
2022-08-28T21:19:15.838Z,64.10
2022-08-28T21:22:47.323Z,64.13
2022-08-28T21:26:15.413Z,64.29
2022-08-28T21:29:42.556Z,64.36
2022-08-28T21:33:12.488Z,64.46
2022-08-28T21:36:49.991Z,64.60
2022-08-28T21:40:19.907Z,64.69
2022-08-28T21:43:48.147Z,64.81
2022-08-28T21:47:19.395Z,64.85
2022-08-28T21:50:47.183Z,64.91
2022-08-28T21:54:17.194Z,64.97
2022-08-28T21:57:44.860Z,65.04
2022-08-28T22:01:15.583Z,65.11
2022-08-28T22:04:48.606Z,65.07
2022-08-28T22:08:24.215Z,65.18
2022-08-28T22:11:52.212Z,65.24
2022-08-28T22:15:20.084Z,65.31
2022-08-28T22:18:47.515Z,65.42
2022-08-28T22:22:33.867Z,65.61
2022-08-28T22:26:06.508Z,65.70
2022-08-28T22:29:37.356Z,65.76
2022-08-28T22:33:06.999Z,65.86
2022-08-28T22:36:44.301Z,65.79
2022-08-28T22:40:17.351Z,65.84
2022-08-28T22:43:47.004Z,65.87
2022-08-28T22:47:20.952Z,65.98
2022-08-28T22:50:49.874Z,66.11
2022-08-28T22:54:18.820Z,66.14
2022-08-28T22:57:48.753Z,66.23
2022-08-28T23:01:19.728Z,66.41
2022-08-28T23:04:51.179Z,66.46
2022-08-28T23:08:19.832Z,66.54
2022-08-28T23:11:47.539Z,66.54
2022-08-28T23:15:17.959Z,66.61
2022-08-28T23:19:07.369Z,66.70
2022-08-28T23:22:35.121Z,66.67
2022-08-28T23:26:03.487Z,66.70
2022-08-28T23:29:31.331Z,66.77
2022-08-28T23:32:58.388Z,66.85
2022-08-28T23:36:26.052Z,66.91
2022-08-28T23:39:53.048Z,66.99
2022-08-28T23:43:22.315Z,66.99
2022-08-28T23:46:50.083Z,67.03
2022-08-28T23:50:20.728Z,67.03
2022-08-28T23:53:48.548Z,67.02
2022-08-28T23:57:18.846Z,67.16
